createdAt,value
2018-11-29T00:02:44.986Z,100932.97
2018-11-29T00:07:03.923Z,100913.93
2018-11-29T00:11:07.975Z,100912.30
2018-11-29T00:15:14.604Z,100908.00
2018-11-29T00:19:18.625Z,100905.38
2018-11-29T00:23:22.631Z,100904.45
2018-11-29T00:27:26.623Z,100906.09
2018-11-29T00:31:30.776Z,100900.41
2018-11-29T00:35:34.810Z,100892.06
2018-11-29T00:39:39.020Z,100899.02
2018-11-29T00:43:43.014Z,100902.50
2018-11-29T00:47:47.521Z,100903.89
2018-11-29T00:51:52.566Z,100905.52
2018-11-29T00:55:56.539Z,100910.17
2018-11-29T01:00:00.504Z,100912.87
2018-11-29T01:04:04.487Z,100915.61
2018-11-29T01:08:08.603Z,100923.56
2018-11-29T01:12:12.647Z,100924.87
2018-11-29T01:16:16.674Z,100915.89
2018-11-29T01:20:21.383Z,100918.05
2018-11-29T01:24:25.440Z,100909.00
2018-11-29T01:28:29.431Z,100909.07
2018-11-29T01:32:33.512Z,100903.75
2018-11-29T01:36:37.586Z,100913.26
2018-11-29T01:40:41.617Z,100901.83
2018-11-29T01:44:45.692Z,100907.02
2018-11-29T01:48:49.911Z,100904.84
2018-11-29T01:52:54.024Z,100917.06
2018-11-29T01:56:58.101Z,100914.58
2018-11-29T02:01:02.214Z,100911.77
2018-11-29T02:05:07.668Z,100905.13
2018-11-29T02:09:11.760Z,100906.52
2018-11-29T02:13:15.765Z,100908.28
2018-11-29T02:17:19.789Z,100902.89
2018-11-29T02:21:23.840Z,100901.90
2018-11-29T02:25:27.952Z,100886.48
2018-11-29T02:29:31.988Z,100887.27
2018-11-29T02:33:36.020Z,100881.80
2018-11-29T02:37:39.965Z,100882.94
2018-11-29T04:54:23.335Z,100808.98
2018-11-29T04:58:27.385Z,100800.47
2018-11-29T05:02:31.410Z,100797.31
2018-11-29T05:06:35.411Z,100800.73
2018-11-29T05:10:39.705Z,100790.36
2018-11-29T05:14:43.707Z,100785.42
2018-11-29T05:18:47.760Z,100790.67
2018-11-29T05:22:51.802Z,100784.32
2018-11-29T05:26:55.982Z,100788.80
2018-11-29T05:30:59.996Z,100775.66
2018-11-29T05:35:06.162Z,100783.08
2018-11-29T05:39:10.188Z,100781.34
2018-11-29T05:43:14.192Z,100785.89
2018-11-29T05:47:18.219Z,100775.04
2018-11-29T05:51:22.182Z,100771.63
2018-11-29T05:55:26.208Z,100772.41
2018-11-29T05:59:30.273Z,100766.48
2018-11-29T06:03:34.274Z,100766.77
2018-11-29T06:07:38.324Z,100767.94
2018-11-29T06:11:42.485Z,100764.07
2018-11-29T06:15:46.451Z,100765.70
2018-11-29T06:19:50.531Z,100758.75
2018-11-29T06:23:54.543Z,100758.30
2018-11-29T06:27:58.546Z,100763.37
2018-11-29T06:32:03.025Z,100756.73
2018-11-29T06:36:07.127Z,100744.06
2018-11-29T06:40:12.070Z,100754.42
2018-11-29T06:44:16.032Z,100746.16
2018-11-29T06:48:21.029Z,100748.92
2018-11-29T06:52:25.007Z,100740.20
2018-11-29T06:56:29.078Z,100738.28
2018-11-29T07:00:33.182Z,100724.06
2018-11-29T07:04:38.726Z,100727.86
2018-11-29T07:08:42.742Z,100720.73
2018-11-29T07:12:46.684Z,100718.95
2018-11-29T07:16:50.739Z,100724.77
2018-11-29T07:21:06.027Z,100721.43
2018-11-29T07:25:10.374Z,100724.23
2018-11-29T07:29:16.893Z,100717.35
2018-11-29T07:33:18.459Z,100715.68
2018-11-29T07:37:27.825Z,100720.36
2018-11-29T07:41:32.879Z,100709.92
2018-11-29T07:45:36.882Z,100695.27
2018-11-29T07:49:40.914Z,100699.13
2018-11-29T07:53:44.867Z,100695.28
2018-11-29T07:57:51.435Z,100699.61
2018-11-29T08:01:55.503Z,100693.36
2018-11-29T08:05:59.571Z,100693.24
2018-11-29T08:10:03.705Z,100688.06
2018-11-29T08:14:07.750Z,100694.17
2018-11-29T08:18:11.888Z,100697.03
2018-11-29T08:22:15.935Z,100704.62
2018-11-29T08:26:19.930Z,100710.95
2018-11-29T08:30:23.983Z,100715.59
2018-11-29T08:34:27.978Z,100721.54
2018-11-29T08:38:32.210Z,100736.65
2018-11-29T08:42:36.554Z,100734.19
2018-11-29T08:46:40.567Z,100742.07
2018-11-29T08:50:44.679Z,100732.25
2018-11-29T08:54:48.723Z,100730.27
2018-11-29T08:58:52.782Z,100724.70
2018-11-29T09:02:56.863Z,100727.72
2018-11-29T09:07:00.972Z,100719.38
2018-11-29T09:11:05.425Z,100701.44
2018-11-29T09:15:13.417Z,100698.57
2018-11-29T09:19:17.599Z,100698.19
2018-11-29T09:23:21.931Z,100711.50
2018-11-29T09:27:25.975Z,100718.60
2018-11-29T09:31:30.451Z,100732.97
2018-11-29T09:35:34.651Z,100730.03
2018-11-29T09:39:38.637Z,100716.97
2018-11-29T09:43:44.167Z,100712.65
2018-11-29T09:47:49.379Z,100713.19
2018-11-29T09:51:53.470Z,100712.94
2018-11-29T09:55:57.475Z,100694.74
2018-11-29T10:00:01.483Z,100683.68
2018-11-29T10:04:05.722Z,100662.14
2018-11-29T10:08:12.456Z,100666.94
2018-11-29T10:12:16.463Z,100656.89
2018-11-29T10:16:20.450Z,100622.23
2018-11-29T10:20:24.502Z,100647.95
2018-11-29T10:24:28.462Z,100648.22
2018-11-29T10:28:32.539Z,100630.00
2018-11-29T10:32:36.530Z,100641.82
2018-11-29T10:36:40.535Z,100661.29
2018-11-29T10:40:44.606Z,100640.58
2018-11-29T10:44:48.633Z,100681.69
2018-11-29T10:48:52.691Z,100674.97
2018-11-29T10:52:56.919Z,100649.05
2018-11-29T10:57:00.967Z,100605.79
2018-11-29T11:01:10.735Z,100643.72
2018-11-29T11:05:16.379Z,100640.56
2018-11-29T11:09:20.411Z,100639.32
2018-11-29T11:13:24.477Z,100579.80
2018-11-29T11:17:28.452Z,100444.39
2018-11-29T11:21:32.518Z,100464.73
2018-11-29T11:25:36.701Z,100445.80
2018-11-29T11:29:40.643Z,100422.08
2018-11-29T11:33:44.607Z,100404.25
2018-11-29T11:37:48.556Z,100383.41
2018-11-29T11:41:52.635Z,100400.78
2018-11-29T11:45:56.701Z,100401.00
2018-11-29T11:50:00.748Z,100426.55
2018-11-29T11:54:04.990Z,100473.22
2018-11-29T11:58:09.249Z,100503.96
2018-11-29T12:02:13.395Z,100486.36
2018-11-29T12:06:17.502Z,100492.00
2018-11-29T12:10:21.507Z,100504.89
2018-11-29T12:14:25.487Z,100491.07
2018-11-29T12:18:41.510Z,100517.35
2018-11-29T12:22:48.013Z,100496.84
2018-11-29T12:26:52.007Z,100483.02
2018-11-29T12:30:56.156Z,100456.36
2018-11-29T12:35:00.194Z,100425.38
2018-11-29T12:39:08.550Z,100433.94
2018-11-29T12:43:12.620Z,100442.67
2018-11-29T12:47:16.601Z,100368.92
2018-11-29T12:51:20.582Z,100347.27
2018-11-29T12:55:25.721Z,100318.23
2018-11-29T12:59:29.743Z,100350.02
2018-11-29T13:03:33.707Z,100360.88
2018-11-29T13:07:37.786Z,100384.86
2018-11-29T13:11:41.855Z,100361.95
2018-11-29T13:15:45.986Z,100326.17
2018-11-29T13:19:55.514Z,100316.07
2018-11-29T13:24:00.520Z,100278.00
2018-11-29T13:28:04.114Z,100309.74
2018-11-29T13:32:08.163Z,100293.27
2018-11-29T13:36:12.489Z,100295.05
2018-11-29T13:44:20.606Z,100274.17
2018-11-29T13:48:24.608Z,100263.59
2018-11-29T13:52:28.716Z,100283.80
2018-11-29T13:56:32.732Z,100289.27
2018-11-29T14:00:36.719Z,100312.13
2018-11-29T14:04:40.751Z,100306.06
2018-11-29T14:08:44.734Z,100301.74
2018-11-29T14:12:49.743Z,100306.34
2018-11-29T14:16:53.798Z,100306.25
2018-11-29T14:20:57.923Z,100305.33
2018-11-29T14:25:01.962Z,100308.23
2018-11-29T14:29:06.123Z,100300.16
2018-11-29T14:33:10.381Z,100311.06
2018-11-29T14:37:15.522Z,100288.91
2018-11-29T14:41:19.654Z,100296.98
2018-11-29T14:45:24.891Z,100298.27
2018-11-29T14:49:28.911Z,100304.79
2018-11-29T14:53:33.127Z,100305.02
2018-11-29T14:57:37.200Z,100314.73
2018-11-29T15:01:41.284Z,100307.11
2018-11-29T15:05:46.502Z,100293.97
2018-11-29T15:09:56.205Z,100292.45
2018-11-29T15:14:00.699Z,100279.86
2018-11-29T15:18:04.736Z,100281.17
2018-11-29T15:22:08.787Z,100286.70
2018-11-29T15:26:12.885Z,100274.14
2018-11-29T15:30:17.995Z,100267.92
2018-11-29T15:34:22.064Z,100260.33
2018-11-29T15:38:26.055Z,100265.14
2018-11-29T15:42:30.046Z,100248.97
2018-11-29T15:46:34.014Z,100252.06
2018-11-29T15:50:38.003Z,100231.26
2018-11-29T15:54:42.122Z,100235.62
2018-11-29T15:58:46.055Z,100235.36
2018-11-29T16:02:50.537Z,100234.70
2018-11-29T16:06:54.595Z,100238.45
2018-11-29T16:10:58.532Z,100232.44
2018-11-29T16:15:02.503Z,100240.53
2018-11-29T16:19:06.619Z,100251.22
2018-11-29T16:23:10.763Z,100245.21
2018-11-29T16:27:14.880Z,100260.63
2018-11-29T16:31:18.808Z,100259.11
2018-11-29T16:35:22.894Z,100270.67
2018-11-29T16:39:26.884Z,100292.73
2018-11-29T16:43:30.835Z,100289.56
2018-11-29T16:47:34.830Z,100288.08
2018-11-29T16:51:38.777Z,100283.89
2018-11-29T16:55:42.779Z,100281.64
2018-11-29T16:59:46.811Z,100279.29
2018-11-29T17:03:50.820Z,100270.88
2018-11-29T17:07:54.867Z,100269.64
2018-11-29T17:12:00.291Z,100292.48
2018-11-29T17:16:03.218Z,100301.47
2018-11-29T17:20:09.764Z,100300.00
2018-11-29T17:24:20.830Z,100298.47
2018-11-29T17:28:28.688Z,100309.01
2018-11-29T17:32:32.645Z,100299.53
2018-11-29T17:36:36.587Z,100316.72
2018-11-29T17:40:40.819Z,100319.11
2018-11-29T17:44:45.006Z,100325.72
2018-11-29T17:48:49.192Z,100330.56
2018-11-29T17:52:53.302Z,100327.93
2018-11-29T17:56:57.520Z,100341.30
2018-11-29T18:01:02.528Z,100342.66
2018-11-29T18:05:07.261Z,100336.55
2018-11-29T18:09:13.501Z,100347.35
2018-11-29T18:13:19.260Z,100334.77
2018-11-29T18:17:23.845Z,100334.20
2018-11-29T18:21:27.954Z,100345.56
2018-11-29T18:25:32.127Z,100336.08
2018-11-29T18:29:36.221Z,100332.27
2018-11-29T18:33:40.191Z,100331.13
2018-11-29T18:37:44.463Z,100328.31
2018-11-29T18:41:48.780Z,100324.66
2018-11-29T18:45:53.256Z,100310.34
2018-11-29T18:49:57.248Z,100305.78
2018-11-29T18:54:01.212Z,100310.21
2018-11-29T18:58:06.396Z,100288.78
2018-11-29T19:02:11.515Z,100315.11
2018-11-29T19:06:15.589Z,100324.13
2018-11-29T19:10:19.956Z,100318.34
2018-11-29T19:14:23.954Z,100313.73
2018-11-29T19:18:28.039Z,100299.36
2018-11-29T19:22:32.151Z,100278.83
2018-11-29T19:26:36.243Z,100308.80
2018-11-29T19:30:40.219Z,100329.55
2018-11-29T19:34:44.188Z,100328.70
2018-11-29T19:38:48.107Z,100323.11
2018-11-29T19:42:52.198Z,100311.44
2018-11-29T19:46:56.362Z,100318.66
2018-11-29T19:51:00.534Z,100319.95
2018-11-29T19:55:04.615Z,100314.06
2018-11-29T19:59:08.699Z,100310.03
2018-11-29T20:03:12.595Z,100314.53
2018-11-29T20:07:16.584Z,100310.51
2018-11-29T20:11:21.556Z,100316.23
2018-11-29T20:15:25.521Z,100312.73
2018-11-29T20:19:29.634Z,100311.03
2018-11-29T20:23:33.615Z,100312.91
2018-11-29T20:27:37.698Z,100321.93
2018-11-29T20:31:41.692Z,100312.16
2018-11-29T20:35:45.788Z,100308.84
2018-11-29T20:39:49.767Z,100307.67
2018-11-29T20:43:53.773Z,100291.42
2018-11-29T20:47:58.919Z,100288.47
2018-11-29T20:52:02.894Z,100310.79
2018-11-29T20:56:11.163Z,100325.14
2018-11-29T21:00:15.675Z,100323.16
2018-11-29T21:04:19.741Z,100320.28
2018-11-29T21:08:23.758Z,100316.62
2018-11-29T21:12:27.764Z,100321.90
2018-11-29T21:16:31.794Z,100309.93
2018-11-29T21:20:35.941Z,100314.19
2018-11-29T21:24:39.930Z,100318.89
2018-11-29T21:28:43.968Z,100319.63
2018-11-29T21:32:48.229Z,100326.77
2018-11-29T21:36:52.251Z,100332.00
2018-11-29T21:41:02.052Z,100319.02
2018-11-29T21:45:06.192Z,100329.95
2018-11-29T21:49:10.135Z,100328.90
2018-11-29T21:53:14.215Z,100317.53
2018-11-29T21:57:18.171Z,100311.84
2018-11-29T22:01:22.131Z,100323.45
2018-11-29T22:05:26.111Z,100320.07
2018-11-29T22:09:30.140Z,100310.56
2018-11-29T22:13:34.377Z,100311.05
2018-11-29T22:17:54.056Z,100317.58
2018-11-29T22:21:59.233Z,100314.90
2018-11-29T22:26:05.065Z,100310.73
2018-11-29T22:30:09.056Z,100311.16
2018-11-29T22:34:13.590Z,100309.73
2018-11-29T22:38:17.616Z,100305.63
2018-11-29T22:42:21.566Z,100329.90
2018-11-29T22:46:25.677Z,100321.67
2018-11-29T22:50:29.726Z,100316.70
2018-11-29T22:54:33.783Z,100319.75
2018-11-29T22:58:38.172Z,100309.26
2018-11-29T23:02:42.136Z,100315.28
2018-11-29T23:06:46.152Z,100318.66
2018-11-29T23:10:53.307Z,100321.13
2018-11-29T23:14:57.285Z,100313.31
2018-11-29T23:19:01.821Z,100315.53
2018-11-29T23:23:05.880Z,100303.66
2018-11-29T23:27:10.251Z,100316.28
2018-11-29T23:31:14.478Z,100313.38
2018-11-29T23:35:18.588Z,100316.39
2018-11-29T23:39:22.627Z,100313.73
2018-11-29T23:43:26.851Z,100300.53
2018-11-29T23:47:31.063Z,100294.04
2018-11-29T23:51:35.075Z,100281.84
2018-11-29T23:55:39.991Z,100276.56
2018-11-29T23:59:44.026Z,100278.83
